sensor_id;sensor_type;location;lat;lon;timestamp;temperature;humidity
6210;DHT22;3138;52.550;13.148;2023-10-09T00:01:25;10.20;99.90
6210;DHT22;3138;52.550;13.148;2023-10-09T00:03:52;10.20;99.90
6210;DHT22;3138;52.550;13.148;2023-10-09T00:06:21;10.10;99.90
6210;DHT22;3138;52.550;13.148;2023-10-09T00:08:58;10.10;99.90
6210;DHT22;3138;52.550;13.148;2023-10-09T00:11:37;10.10;99.90
6210;DHT22;3138;52.550;13.148;2023-10-09T00:14:07;10.10;99.90
6210;DHT22;3138;52.550;13.148;2023-10-09T00:16:34;10.00;99.90
6210;DHT22;3138;52.550;13.148;2023-10-09T00:19:03;10.00;99.90
6210;DHT22;3138;52.550;13.148;2023-10-09T00:21:40;10.10;99.90
6210;DHT22;3138;52.550;13.148;2023-10-09T00:24:08;10.10;99.90
6210;DHT22;3138;52.550;13.148;2023-10-09T00:26:40;10.00;99.90
6210;DHT22;3138;52.550;13.148;2023-10-09T00:29:11;10.00;99.90
6210;DHT22;3138;52.550;13.148;2023-10-09T00:31:48;10.00;99.90
6210;DHT22;3138;52.550;13.148;2023-10-09T00:34:17;10.00;99.90
6210;DHT22;3138;52.550;13.148;2023-10-09T00:36:45;10.00;99.90
6210;DHT22;3138;52.550;13.148;2023-10-09T00:39:18;10.00;99.90
6210;DHT22;3138;52.550;13.148;2023-10-09T00:41:59;10.00;99.90
6210;DHT22;3138;52.550;13.148;2023-10-09T00:44:27;10.00;99.90
6210;DHT22;3138;52.550;13.148;2023-10-09T00:47:07;10.00;99.90
6210;DHT22;3138;52.550;13.148;2023-10-09T00:49:48;10.00;99.90
6210;DHT22;3138;52.550;13.148;2023-10-09T00:52:16;10.00;99.90
6210;DHT22;3138;52.550;13.148;2023-10-09T00:54:54;10.00;99.90
6210;DHT22;3138;52.550;13.148;2023-10-09T00:57:27;10.00;99.90
6210;DHT22;3138;52.550;13.148;2023-10-09T00:59:57;10.00;99.90
6210;DHT22;3138;52.550;13.148;2023-10-09T01:02:27;9.90;99.90
6210;DHT22;3138;52.550;13.148;2023-10-09T01:05:04;9.90;99.90
6210;DHT22;3138;52.550;13.148;2023-10-09T01:07:46;9.90;99.90
6210;DHT22;3138;52.550;13.148;2023-10-09T01:10:15;9.90;99.90
6210;DHT22;3138;52.550;13.148;2023-10-09T01:13:01;9.90;99.90
6210;DHT22;3138;52.550;13.148;2023-10-09T01:15:29;9.90;99.90
6210;DHT22;3138;52.550;13.148;2023-10-09T01:18:09;10.00;99.90
6210;DHT22;3138;52.550;13.148;2023-10-09T01:20:38;9.90;99.90
6210;DHT22;3138;52.550;13.148;2023-10-09T01:23:12;9.90;99.90
6210;DHT22;3138;52.550;13.148;2023-10-09T01:25:39;9.90;99.90
6210;DHT22;3138;52.550;13.148;2023-10-09T01:28:10;9.80;99.90
6210;DHT22;3138;52.550;13.148;2023-10-09T01:30:41;9.90;99.90
6210;DHT22;3138;52.550;13.148;2023-10-09T01:33:08;9.90;99.90
6210;DHT22;3138;52.550;13.148;2023-10-09T01:35:48;9.80;99.90
6210;DHT22;3138;52.550;13.148;2023-10-09T01:38:18;9.80;99.90
6210;DHT22;3138;52.550;13.148;2023-10-09T01:40:56;9.80;99.90
6210;DHT22;3138;52.550;13.148;2023-10-09T01:43:29;9.80;99.90
6210;DHT22;3138;52.550;13.148;2023-10-09T01:45:59;9.80;99.90
6210;DHT22;3138;52.550;13.148;2023-10-09T01:48:27;9.80;99.90
6210;DHT22;3138;52.550;13.148;2023-10-09T01:50:58;9.80;99.90
6210;DHT22;3138;52.550;13.148;2023-10-09T01:53:27;9.80;99.90
6210;DHT22;3138;52.550;13.148;2023-10-09T01:55:55;9.80;99.90
6210;DHT22;3138;52.550;13.148;2023-10-09T01:58:24;9.70;99.90
6210;DHT22;3138;52.550;13.148;2023-10-09T02:00:53;9.80;99.90
6210;DHT22;3138;52.550;13.148;2023-10-09T02:03:21;9.70;99.90
6210;DHT22;3138;52.550;13.148;2023-10-09T02:05:55;9.70;99.90
6210;DHT22;3138;52.550;13.148;2023-10-09T02:08:44;9.70;99.90
6210;DHT22;3138;52.550;13.148;2023-10-09T02:11:15;9.70;99.90
6210;DHT22;3138;52.550;13.148;2023-10-09T02:13:49;9.70;99.90
6210;DHT22;3138;52.550;13.148;2023-10-09T02:16:19;9.80;99.90
6210;DHT22;3138;52.550;13.148;2023-10-09T02:18:54;9.80;99.90
6210;DHT22;3138;52.550;13.148;2023-10-09T02:21:21;9.80;99.90
6210;DHT22;3138;52.550;13.148;2023-10-09T02:24:01;9.80;99.90
6210;DHT22;3138;52.550;13.148;2023-10-09T02:26:31;9.80;99.90
6210;DHT22;3138;52.550;13.148;2023-10-09T02:29:20;9.80;99.90
6210;DHT22;3138;52.550;13.148;2023-10-09T02:31:49;9.80;99.90
6210;DHT22;3138;52.550;13.148;2023-10-09T02:34:18;9.90;99.90
6210;DHT22;3138;52.550;13.148;2023-10-09T02:36:48;9.80;99.90
6210;DHT22;3138;52.550;13.148;2023-10-09T02:39:24;9.90;99.90
6210;DHT22;3138;52.550;13.148;2023-10-09T02:41:52;9.80;99.90
6210;DHT22;3138;52.550;13.148;2023-10-09T02:44:23;9.90;99.90
6210;DHT22;3138;52.550;13.148;2023-10-09T02:46:51;9.80;99.90
6210;DHT22;3138;52.550;13.148;2023-10-09T02:49:23;9.80;99.90
6210;DHT22;3138;52.550;13.148;2023-10-09T02:51:50;9.80;99.90
6210;DHT22;3138;52.550;13.148;2023-10-09T02:54:19;9.70;99.90
6210;DHT22;3138;52.550;13.148;2023-10-09T02:56:54;9.70;99.90
6210;DHT22;3138;52.550;13.148;2023-10-09T02:59:31;9.70;99.90
6210;DHT22;3138;52.550;13.148;2023-10-09T03:01:58;9.70;99.90
6210;DHT22;3138;52.550;13.148;2023-10-09T03:04:25;9.70;99.90
6210;DHT22;3138;52.550;13.148;2023-10-09T03:06:55;9.70;99.90
6210;DHT22;3138;52.550;13.148;2023-10-09T03:09:23;9.70;99.90
6210;DHT22;3138;52.550;13.148;2023-10-09T03:11:55;9.70;99.90
6210;DHT22;3138;52.550;13.148;2023-10-09T03:14:27;9.70;99.90
6210;DHT22;3138;52.550;13.148;2023-10-09T03:16:55;9.70;99.90
6210;DHT22;3138;52.550;13.148;2023-10-09T03:19:22;9.70;99.90
6210;DHT22;3138;52.550;13.148;2023-10-09T03:21:50;9.70;99.90
6210;DHT22;3138;52.550;13.148;2023-10-09T03:24:17;9.80;99.90
6210;DHT22;3138;52.550;13.148;2023-10-09T03:26:48;9.70;99.90
6210;DHT22;3138;52.550;13.148;2023-10-09T03:29:16;9.70;99.90
6210;DHT22;3138;52.550;13.148;2023-10-09T03:31:45;9.70;99.90
6210;DHT22;3138;52.550;13.148;2023-10-09T03:34:12;9.80;99.90
6210;DHT22;3138;52.550;13.148;2023-10-09T03:36:39;9.70;99.90
6210;DHT22;3138;52.550;13.148;2023-10-09T03:39:06;9.70;99.90
6210;DHT22;3138;52.550;13.148;2023-10-09T03:41:49;9.70;99.90
6210;DHT22;3138;52.550;13.148;2023-10-09T03:44:17;9.70;99.90
6210;DHT22;3138;52.550;13.148;2023-10-09T03:46:45;9.70;99.90
6210;DHT22;3138;52.550;13.148;2023-10-09T03:49:12;9.70;99.90
6210;DHT22;3138;52.550;13.148;2023-10-09T03:51:48;9.70;99.90
6210;DHT22;3138;52.550;13.148;2023-10-09T03:54:15;9.70;99.90
6210;DHT22;3138;52.550;13.148;2023-10-09T03:56:45;9.60;99.90
6210;DHT22;3138;52.550;13.148;2023-10-09T03:59:16;9.60;99.90
6210;DHT22;3138;52.550;13.148;2023-10-09T04:01:45;9.60;99.90
6210;DHT22;3138;52.550;13.148;2023-10-09T04:04:14;9.60;99.90
6210;DHT22;3138;52.550;13.148;2023-10-09T04:06:41;9.60;99.90
6210;DHT22;3138;52.550;13.148;2023-10-09T04:09:09;9.60;99.90
6210;DHT22;3138;52.550;13.148;2023-10-09T04:11:55;9.60;99.90
6210;DHT22;3138;52.550;13.148;2023-10-09T04:14:47;9.60;99.90
6210;DHT22;3138;52.550;13.148;2023-10-09T04:17:16;9.60;99.90
6210;DHT22;3138;52.550;13.148;2023-10-09T04:20:06;9.60;99.90
6210;DHT22;3138;52.550;13.148;2023-10-09T04:23:21;9.60;99.90
6210;DHT22;3138;52.550;13.148;2023-10-09T04:26:00;9.50;99.90
6210;DHT22;3138;52.550;13.148;2023-10-09T04:28:36;9.50;99.90
6210;DHT22;3138;52.550;13.148;2023-10-09T04:31:04;9.60;99.90
6210;DHT22;3138;52.550;13.148;2023-10-09T04:33:33;9.50;99.90
6210;DHT22;3138;52.550;13.148;2023-10-09T04:36:09;9.60;99.90
6210;DHT22;3138;52.550;13.148;2023-10-09T04:38:42;9.60;99.90
6210;DHT22;3138;52.550;13.148;2023-10-09T04:41:21;9.60;99.90
6210;DHT22;3138;52.550;13.148;2023-10-09T04:43:56;9.60;99.90
6210;DHT22;3138;52.550;13.148;2023-10-09T04:46:45;9.70;99.90
6210;DHT22;3138;52.550;13.148;2023-10-09T04:49:31;9.70;99.90
6210;DHT22;3138;52.550;13.148;2023-10-09T04:52:15;9.60;99.90
6210;DHT22;3138;52.550;13.148;2023-10-09T04:55:05;9.60;99.90
6210;DHT22;3138;52.550;13.148;2023-10-09T04:57:43;9.60;99.90
6210;DHT22;3138;52.550;13.148;2023-10-09T05:00:13;9.60;99.90
6210;DHT22;3138;52.550;13.148;2023-10-09T05:02:50;9.70;99.90
6210;DHT22;3138;52.550;13.148;2023-10-09T05:05:20;9.70;99.90
6210;DHT22;3138;52.550;13.148;2023-10-09T05:08:14;9.60;99.90
6210;DHT22;3138;52.550;13.148;2023-10-09T05:10:45;9.60;99.90
6210;DHT22;3138;52.550;13.148;2023-10-09T05:13:26;9.60;99.90
6210;DHT22;3138;52.550;13.148;2023-10-09T05:16:09;9.60;99.90
6210;DHT22;3138;52.550;13.148;2023-10-09T05:18:45;9.50;99.90
6210;DHT22;3138;52.550;13.148;2023-10-09T05:21:21;9.50;99.90
6210;DHT22;3138;52.550;13.148;2023-10-09T05:24:03;9.50;99.90
6210;DHT22;3138;52.550;13.148;2023-10-09T05:26:45;9.50;99.90
6210;DHT22;3138;52.550;13.148;2023-10-09T05:29:19;9.50;99.90
6210;DHT22;3138;52.550;13.148;2023-10-09T05:31:45;9.50;99.90
6210;DHT22;3138;52.550;13.148;2023-10-09T05:34:24;9.50;99.90
6210;DHT22;3138;52.550;13.148;2023-10-09T05:36:59;9.50;99.90
6210;DHT22;3138;52.550;13.148;2023-10-09T05:39:43;9.50;99.90
6210;DHT22;3138;52.550;13.148;2023-10-09T05:42:23;9.50;99.90
6210;DHT22;3138;52.550;13.148;2023-10-09T05:44:54;9.50;99.90
6210;DHT22;3138;52.550;13.148;2023-10-09T05:47:37;9.50;99.90
6210;DHT22;3138;52.550;13.148;2023-10-09T05:50:14;9.50;99.90
6210;DHT22;3138;52.550;13.148;2023-10-09T05:53:00;9.50;99.90
6210;DHT22;3138;52.550;13.148;2023-10-09T05:55:33;9.50;99.90
6210;DHT22;3138;52.550;13.148;2023-10-09T05:58:17;9.60;99.90
6210;DHT22;3138;52.550;13.148;2023-10-09T06:01:00;9.50;99.90
6210;DHT22;3138;52.550;13.148;2023-10-09T06:03:47;9.50;99.90
6210;DHT22;3138;52.550;13.148;2023-10-09T06:06:22;9.50;99.90
6210;DHT22;3138;52.550;13.148;2023-10-09T06:09:08;9.50;99.90
6210;DHT22;3138;52.550;13.148;2023-10-09T06:11:53;9.60;99.90
6210;DHT22;3138;52.550;13.148;2023-10-09T06:14:41;9.60;99.90
6210;DHT22;3138;52.550;13.148;2023-10-09T06:17:24;9.60;99.90
6210;DHT22;3138;52.550;13.148;2023-10-09T06:19:53;9.60;99.90
6210;DHT22;3138;52.550;13.148;2023-10-09T06:22:25;9.70;99.90
6210;DHT22;3138;52.550;13.148;2023-10-09T06:25:22;9.80;99.90
6210;DHT22;3138;52.550;13.148;2023-10-09T06:27:58;9.80;99.90
6210;DHT22;3138;52.550;13.148;2023-10-09T06:30:25;9.70;99.90
6210;DHT22;3138;52.550;13.148;2023-10-09T06:32:52;9.80;99.90
6210;DHT22;3138;52.550;13.148;2023-10-09T06:35:33;9.90;99.90
6210;DHT22;3138;52.550;13.148;2023-10-09T06:38:03;9.90;99.90
6210;DHT22;3138;52.550;13.148;2023-10-09T06:40:48;9.80;99.90
6210;DHT22;3138;52.550;13.148;2023-10-09T06:43:32;9.80;99.90
6210;DHT22;3138;52.550;13.148;2023-10-09T06:46:02;9.80;99.90
6210;DHT22;3138;52.550;13.148;2023-10-09T06:48:52;9.80;99.90
6210;DHT22;3138;52.550;13.148;2023-10-09T06:51:23;9.90;99.90
6210;DHT22;3138;52.550;13.148;2023-10-09T06:54:07;9.90;99.90
6210;DHT22;3138;52.550;13.148;2023-10-09T06:56:43;9.90;99.90
6210;DHT22;3138;52.550;13.148;2023-10-09T06:59:27;10.10;99.90
6210;DHT22;3138;52.550;13.148;2023-10-09T07:02:07;10.10;99.90
6210;DHT22;3138;52.550;13.148;2023-10-09T07:05:00;10.20;99.90
6210;DHT22;3138;52.550;13.148;2023-10-09T07:07:36;10.40;99.90
6210;DHT22;3138;52.550;13.148;2023-10-09T07:10:17;10.30;99.90
6210;DHT22;3138;52.550;13.148;2023-10-09T07:12:59;10.50;99.90
6210;DHT22;3138;52.550;13.148;2023-10-09T07:15:25;10.50;99.90
6210;DHT22;3138;52.550;13.148;2023-10-09T07:18:05;10.50;99.90
6210;DHT22;3138;52.550;13.148;2023-10-09T07:20:45;10.60;99.90
6210;DHT22;3138;52.550;13.148;2023-10-09T07:23:25;10.70;99.90
6210;DHT22;3138;52.550;13.148;2023-10-09T07:26:02;10.80;99.90
6210;DHT22;3138;52.550;13.148;2023-10-09T07:28:44;10.70;99.90
6210;DHT22;3138;52.550;13.148;2023-10-09T07:31:17;10.80;99.90
6210;DHT22;3138;52.550;13.148;2023-10-09T07:34:05;10.90;99.90
6210;DHT22;3138;52.550;13.148;2023-10-09T07:36:53;10.80;99.90
6210;DHT22;3138;52.550;13.148;2023-10-09T07:39:22;10.90;99.90
6210;DHT22;3138;52.550;13.148;2023-10-09T07:41:50;10.90;99.90
6210;DHT22;3138;52.550;13.148;2023-10-09T07:44:27;10.90;99.90
6210;DHT22;3138;52.550;13.148;2023-10-09T07:47:04;10.90;99.90
6210;DHT22;3138;52.550;13.148;2023-10-09T07:49:48;10.90;99.90
6210;DHT22;3138;52.550;13.148;2023-10-09T07:52:18;11.10;99.90
6210;DHT22;3138;52.550;13.148;2023-10-09T07:54:48;10.90;99.90
6210;DHT22;3138;52.550;13.148;2023-10-09T07:57:28;10.80;99.90
6210;DHT22;3138;52.550;13.148;2023-10-09T08:00:05;10.80;99.90
6210;DHT22;3138;52.550;13.148;2023-10-09T08:02:57;10.80;99.90
6210;DHT22;3138;52.550;13.148;2023-10-09T08:05:25;10.90;99.90
6210;DHT22;3138;52.550;13.148;2023-10-09T08:07:59;11.00;99.90
6210;DHT22;3138;52.550;13.148;2023-10-09T08:10:44;10.90;99.90
6210;DHT22;3138;52.550;13.148;2023-10-09T08:13:26;11.00;99.90
6210;DHT22;3138;52.550;13.148;2023-10-09T08:16:10;11.10;99.90
6210;DHT22;3138;52.550;13.148;2023-10-09T08:18:45;11.00;99.90
6210;DHT22;3138;52.550;13.148;2023-10-09T08:21:11;11.00;99.90
6210;DHT22;3138;52.550;13.148;2023-10-09T08:24:07;11.00;99.90
6210;DHT22;3138;52.550;13.148;2023-10-09T08:26:53;11.00;99.90
6210;DHT22;3138;52.550;13.148;2023-10-09T08:29:41;10.90;99.90
6210;DHT22;3138;52.550;13.148;2023-10-09T08:32:12;10.80;99.90
6210;DHT22;3138;52.550;13.148;2023-10-09T08:35:04;10.80;99.90
6210;DHT22;3138;52.550;13.148;2023-10-09T08:37:31;10.90;99.90
6210;DHT22;3138;52.550;13.148;2023-10-09T08:39:58;10.90;99.90
6210;DHT22;3138;52.550;13.148;2023-10-09T08:42:25;10.90;99.90
6210;DHT22;3138;52.550;13.148;2023-10-09T08:44:56;10.90;99.90
6210;DHT22;3138;52.550;13.148;2023-10-09T08:47:26;10.90;99.90
6210;DHT22;3138;52.550;13.148;2023-10-09T08:49:53;10.90;99.90
6210;DHT22;3138;52.550;13.148;2023-10-09T08:52:19;11.00;99.90
6210;DHT22;3138;52.550;13.148;2023-10-09T08:54:47;11.00;99.90
6210;DHT22;3138;52.550;13.148;2023-10-09T08:57:15;11.10;99.90
6210;DHT22;3138;52.550;13.148;2023-10-09T08:59:44;10.90;99.90
6210;DHT22;3138;52.550;13.148;2023-10-09T09:02:12;10.90;99.90
6210;DHT22;3138;52.550;13.148;2023-10-09T09:04:41;10.90;99.90
6210;DHT22;3138;52.550;13.148;2023-10-09T09:07:25;10.90;99.90
6210;DHT22;3138;52.550;13.148;2023-10-09T09:09:57;11.10;99.90
6210;DHT22;3138;52.550;13.148;2023-10-09T09:12:28;11.10;99.90
6210;DHT22;3138;52.550;13.148;2023-10-09T09:15:03;11.10;99.90
6210;DHT22;3138;52.550;13.148;2023-10-09T09:17:34;11.20;99.90
6210;DHT22;3138;52.550;13.148;2023-10-09T09:20:19;11.30;99.90
6210;DHT22;3138;52.550;13.148;2023-10-09T09:22:52;11.30;99.90
6210;DHT22;3138;52.550;13.148;2023-10-09T09:25:21;11.40;99.90
6210;DHT22;3138;52.550;13.148;2023-10-09T09:27:50;11.40;99.90
6210;DHT22;3138;52.550;13.148;2023-10-09T09:30:23;11.40;99.90
6210;DHT22;3138;52.550;13.148;2023-10-09T09:32:53;11.40;99.90
6210;DHT22;3138;52.550;13.148;2023-10-09T09:35:34;11.40;99.90
6210;DHT22;3138;52.550;13.148;2023-10-09T09:38:01;11.40;99.90
6210;DHT22;3138;52.550;13.148;2023-10-09T09:40:31;11.40;99.90
6210;DHT22;3138;52.550;13.148;2023-10-09T09:43:08;11.30;99.90
6210;DHT22;3138;52.550;13.148;2023-10-09T09:45:47;11.40;99.90
6210;DHT22;3138;52.550;13.148;2023-10-09T09:48:17;11.40;99.90
6210;DHT22;3138;52.550;13.148;2023-10-09T09:50:44;11.50;99.90
6210;DHT22;3138;52.550;13.148;2023-10-09T09:53:13;11.60;99.90
6210;DHT22;3138;52.550;13.148;2023-10-09T09:55:45;11.50;99.90
6210;DHT22;3138;52.550;13.148;2023-10-09T09:58:18;11.60;99.90
6210;DHT22;3138;52.550;13.148;2023-10-09T10:00:47;11.60;99.90
6210;DHT22;3138;52.550;13.148;2023-10-09T10:03:23;11.70;99.90
6210;DHT22;3138;52.550;13.148;2023-10-09T10:05:51;11.70;99.90
6210;DHT22;3138;52.550;13.148;2023-10-09T10:08:21;11.60;99.90
6210;DHT22;3138;52.550;13.148;2023-10-09T10:10:56;11.60;99.90
6210;DHT22;3138;52.550;13.148;2023-10-09T10:13:55;11.60;99.90
6210;DHT22;3138;52.550;13.148;2023-10-09T10:16:25;11.60;99.90
6210;DHT22;3138;52.550;13.148;2023-10-09T10:19:02;11.60;99.90
6210;DHT22;3138;52.550;13.148;2023-10-09T10:21:47;11.60;99.90
6210;DHT22;3138;52.550;13.148;2023-10-09T10:24:42;11.60;99.90
6210;DHT22;3138;52.550;13.148;2023-10-09T10:27:21;11.70;99.90
6210;DHT22;3138;52.550;13.148;2023-10-09T10:33:08;11.80;99.90
6210;DHT22;3138;52.550;13.148;2023-10-09T10:35:40;11.80;99.90
6210;DHT22;3138;52.550;13.148;2023-10-09T10:38:25;11.80;99.90
6210;DHT22;3138;52.550;13.148;2023-10-09T10:41:11;11.80;99.90
6210;DHT22;3138;52.550;13.148;2023-10-09T10:43:40;11.90;99.90
6210;DHT22;3138;52.550;13.148;2023-10-09T10:46:46;12.10;99.90
6210;DHT22;3138;52.550;13.148;2023-10-09T10:49:18;12.20;99.90
6210;DHT22;3138;52.550;13.148;2023-10-09T10:51:49;12.20;99.90
6210;DHT22;3138;52.550;13.148;2023-10-09T10:54:26;12.10;99.90
6210;DHT22;3138;52.550;13.148;2023-10-09T10:57:15;12.20;99.90
6210;DHT22;3138;52.550;13.148;2023-10-09T10:59:54;12.30;99.90
6210;DHT22;3138;52.550;13.148;2023-10-09T11:02:39;12.30;99.90
6210;DHT22;3138;52.550;13.148;2023-10-09T11:05:07;12.10;99.90
6210;DHT22;3138;52.550;13.148;2023-10-09T11:07:51;12.10;99.90
6210;DHT22;3138;52.550;13.148;2023-10-09T11:10:22;12.10;99.90
6210;DHT22;3138;52.550;13.148;2023-10-09T11:12:54;12.30;99.90
6210;DHT22;3138;52.550;13.148;2023-10-09T11:15:39;12.30;99.90
6210;DHT22;3138;52.550;13.148;2023-10-09T11:18:14;12.40;99.90
6210;DHT22;3138;52.550;13.148;2023-10-09T11:20:48;12.40;99.90
6210;DHT22;3138;52.550;13.148;2023-10-09T11:23:46;12.40;99.90
6210;DHT22;3138;52.550;13.148;2023-10-09T11:26:25;12.40;99.90
6210;DHT22;3138;52.550;13.148;2023-10-09T11:29:07;12.50;99.90
6210;DHT22;3138;52.550;13.148;2023-10-09T11:31:41;12.50;99.90
6210;DHT22;3138;52.550;13.148;2023-10-09T11:34:20;12.60;99.90
6210;DHT22;3138;52.550;13.148;2023-10-09T11:36:56;12.50;99.90
6210;DHT22;3138;52.550;13.148;2023-10-09T11:39:27;12.60;99.90
6210;DHT22;3138;52.550;13.148;2023-10-09T11:42:18;12.60;99.90
6210;DHT22;3138;52.550;13.148;2023-10-09T11:45:02;12.80;99.90
6210;DHT22;3138;52.550;13.148;2023-10-09T11:47:45;12.90;99.90
6210;DHT22;3138;52.550;13.148;2023-10-09T11:50:20;12.80;99.90
6210;DHT22;3138;52.550;13.148;2023-10-09T11:52:57;12.80;99.90
6210;DHT22;3138;52.550;13.148;2023-10-09T11:55:44;12.70;99.90
6210;DHT22;3138;52.550;13.148;2023-10-09T11:58:14;12.60;99.90
6210;DHT22;3138;52.550;13.148;2023-10-09T12:00:49;12.60;99.90
6210;DHT22;3138;52.550;13.148;2023-10-09T12:03:16;12.70;99.90
6210;DHT22;3138;52.550;13.148;2023-10-09T12:05:47;12.50;99.90
6210;DHT22;3138;52.550;13.148;2023-10-09T12:08:14;12.60;99.90
6210;DHT22;3138;52.550;13.148;2023-10-09T12:10:43;12.70;99.90
6210;DHT22;3138;52.550;13.148;2023-10-09T12:13:13;12.90;99.90
6210;DHT22;3138;52.550;13.148;2023-10-09T12:15:41;12.90;99.90
6210;DHT22;3138;52.550;13.148;2023-10-09T12:18:12;12.90;99.90
6210;DHT22;3138;52.550;13.148;2023-10-09T12:20:41;12.80;99.90
6210;DHT22;3138;52.550;13.148;2023-10-09T12:23:15;12.70;99.90
6210;DHT22;3138;52.550;13.148;2023-10-09T12:25:43;12.70;99.90
6210;DHT22;3138;52.550;13.148;2023-10-09T12:28:11;12.70;99.90
6210;DHT22;3138;52.550;13.148;2023-10-09T12:30:39;12.50;99.90
6210;DHT22;3138;52.550;13.148;2023-10-09T12:33:07;12.50;99.90
6210;DHT22;3138;52.550;13.148;2023-10-09T12:35:38;12.50;99.90
6210;DHT22;3138;52.550;13.148;2023-10-09T12:38:05;12.50;99.90
6210;DHT22;3138;52.550;13.148;2023-10-09T12:40:35;12.50;99.90
6210;DHT22;3138;52.550;13.148;2023-10-09T12:43:04;12.40;99.90
6210;DHT22;3138;52.550;13.148;2023-10-09T12:45:33;12.50;99.90
6210;DHT22;3138;52.550;13.148;2023-10-09T12:48:01;12.60;99.90
6210;DHT22;3138;52.550;13.148;2023-10-09T12:50:29;12.60;99.90
6210;DHT22;3138;52.550;13.148;2023-10-09T12:52:55;12.70;99.90
6210;DHT22;3138;52.550;13.148;2023-10-09T12:55:23;12.80;99.90
6210;DHT22;3138;52.550;13.148;2023-10-09T12:57:59;12.80;99.90
6210;DHT22;3138;52.550;13.148;2023-10-09T13:00:33;12.70;99.90
6210;DHT22;3138;52.550;13.148;2023-10-09T13:03:04;12.70;99.90
6210;DHT22;3138;52.550;13.148;2023-10-09T13:05:45;12.60;99.90
6210;DHT22;3138;52.550;13.148;2023-10-09T13:08:19;12.50;99.90
6210;DHT22;3138;52.550;13.148;2023-10-09T13:10:48;12.60;99.90
6210;DHT22;3138;52.550;13.148;2023-10-09T13:13:25;12.50;99.90
6210;DHT22;3138;52.550;13.148;2023-10-09T13:15:53;12.60;99.90
6210;DHT22;3138;52.550;13.148;2023-10-09T13:18:20;12.60;99.90
6210;DHT22;3138;52.550;13.148;2023-10-09T13:20:48;12.50;99.90
6210;DHT22;3138;52.550;13.148;2023-10-09T13:23:15;12.60;99.90
6210;DHT22;3138;52.550;13.148;2023-10-09T13:25:42;12.60;99.90
6210;DHT22;3138;52.550;13.148;2023-10-09T13:28:10;12.60;99.90
6210;DHT22;3138;52.550;13.148;2023-10-09T13:30:38;12.60;99.90
6210;DHT22;3138;52.550;13.148;2023-10-09T13:33:16;12.60;99.90
6210;DHT22;3138;52.550;13.148;2023-10-09T13:35:47;12.60;99.90
6210;DHT22;3138;52.550;13.148;2023-10-09T13:38:16;12.70;99.90
6210;DHT22;3138;52.550;13.148;2023-10-09T13:40:43;12.60;99.90
6210;DHT22;3138;52.550;13.148;2023-10-09T13:43:10;12.60;99.90
6210;DHT22;3138;52.550;13.148;2023-10-09T13:45:42;12.50;99.90
6210;DHT22;3138;52.550;13.148;2023-10-09T13:48:16;12.50;99.90
6210;DHT22;3138;52.550;13.148;2023-10-09T13:50:46;12.50;99.90
6210;DHT22;3138;52.550;13.148;2023-10-09T13:53:13;12.40;99.90
6210;DHT22;3138;52.550;13.148;2023-10-09T13:55:41;12.30;99.90
6210;DHT22;3138;52.550;13.148;2023-10-09T13:58:09;12.20;99.90
6210;DHT22;3138;52.550;13.148;2023-10-09T14:00:46;12.10;99.90
6210;DHT22;3138;52.550;13.148;2023-10-09T14:03:16;12.10;99.90
6210;DHT22;3138;52.550;13.148;2023-10-09T14:05:45;12.10;99.90
6210;DHT22;3138;52.550;13.148;2023-10-09T14:08:20;12.10;99.90
6210;DHT22;3138;52.550;13.148;2023-10-09T14:10:49;12.10;99.90
6210;DHT22;3138;52.550;13.148;2023-10-09T14:13:16;12.10;99.90
6210;DHT22;3138;52.550;13.148;2023-10-09T14:15:51;12.10;99.90
6210;DHT22;3138;52.550;13.148;2023-10-09T14:18:21;12.20;99.90
6210;DHT22;3138;52.550;13.148;2023-10-09T14:20:48;12.40;99.90
6210;DHT22;3138;52.550;13.148;2023-10-09T14:23:15;12.40;99.90
6210;DHT22;3138;52.550;13.148;2023-10-09T14:25:46;12.40;99.90
6210;DHT22;3138;52.550;13.148;2023-10-09T14:28:15;12.30;99.90
6210;DHT22;3138;52.550;13.148;2023-10-09T14:30:44;12.20;99.90
6210;DHT22;3138;52.550;13.148;2023-10-09T14:33:14;12.20;99.90
6210;DHT22;3138;52.550;13.148;2023-10-09T14:35:49;12.30;99.90
6210;DHT22;3138;52.550;13.148;2023-10-09T14:38:18;12.30;99.90
6210;DHT22;3138;52.550;13.148;2023-10-09T14:40:52;12.20;99.90
6210;DHT22;3138;52.550;13.148;2023-10-09T14:43:23;12.20;99.90
6210;DHT22;3138;52.550;13.148;2023-10-09T14:45:54;12.30;99.90
6210;DHT22;3138;52.550;13.148;2023-10-09T14:48:21;12.20;99.90
6210;DHT22;3138;52.550;13.148;2023-10-09T14:50:53;12.20;99.90
6210;DHT22;3138;52.550;13.148;2023-10-09T14:53:20;12.30;99.90
6210;DHT22;3138;52.550;13.148;2023-10-09T14:55:54;12.30;99.90
6210;DHT22;3138;52.550;13.148;2023-10-09T14:58:21;12.20;99.90
6210;DHT22;3138;52.550;13.148;2023-10-09T15:00:50;12.20;99.90
6210;DHT22;3138;52.550;13.148;2023-10-09T15:03:17;12.10;99.90
6210;DHT22;3138;52.550;13.148;2023-10-09T15:05:45;12.10;99.90
6210;DHT22;3138;52.550;13.148;2023-10-09T15:08:13;12.10;99.90
6210;DHT22;3138;52.550;13.148;2023-10-09T15:10:47;12.10;99.90
6210;DHT22;3138;52.550;13.148;2023-10-09T15:13:15;12.00;99.90
6210;DHT22;3138;52.550;13.148;2023-10-09T15:15:43;11.90;99.90
6210;DHT22;3138;52.550;13.148;2023-10-09T15:18:10;11.90;99.90
6210;DHT22;3138;52.550;13.148;2023-10-09T15:20:41;11.90;99.90
6210;DHT22;3138;52.550;13.148;2023-10-09T15:23:08;11.90;99.90
6210;DHT22;3138;52.550;13.148;2023-10-09T15:25:36;11.90;99.90
6210;DHT22;3138;52.550;13.148;2023-10-09T15:28:05;12.00;99.90
6210;DHT22;3138;52.550;13.148;2023-10-09T15:30:33;11.90;99.90
6210;DHT22;3138;52.550;13.148;2023-10-09T15:33:00;11.90;99.90
6210;DHT22;3138;52.550;13.148;2023-10-09T15:35:27;11.80;99.90
6210;DHT22;3138;52.550;13.148;2023-10-09T15:37:55;11.90;99.90
6210;DHT22;3138;52.550;13.148;2023-10-09T15:40:22;11.80;99.90
6210;DHT22;3138;52.550;13.148;2023-10-09T15:42:51;11.80;99.90
6210;DHT22;3138;52.550;13.148;2023-10-09T15:45:21;11.80;99.90
6210;DHT22;3138;52.550;13.148;2023-10-09T15:47:50;11.80;99.90
6210;DHT22;3138;52.550;13.148;2023-10-09T15:50:17;11.70;99.90
6210;DHT22;3138;52.550;13.148;2023-10-09T15:52:45;11.80;99.90
6210;DHT22;3138;52.550;13.148;2023-10-09T15:55:13;11.60;99.90
6210;DHT22;3138;52.550;13.148;2023-10-09T15:57:40;11.60;99.90
6210;DHT22;3138;52.550;13.148;2023-10-09T16:00:10;11.70;99.90
6210;DHT22;3138;52.550;13.148;2023-10-09T16:02:43;11.60;99.90
6210;DHT22;3138;52.550;13.148;2023-10-09T16:05:11;11.60;99.90
6210;DHT22;3138;52.550;13.148;2023-10-09T16:07:39;11.60;99.90
6210;DHT22;3138;52.550;13.148;2023-10-09T16:10:06;11.60;99.90
6210;DHT22;3138;52.550;13.148;2023-10-09T16:12:34;11.50;99.90
6210;DHT22;3138;52.550;13.148;2023-10-09T16:15:01;11.50;99.90
6210;DHT22;3138;52.550;13.148;2023-10-09T16:17:32;11.40;99.90
6210;DHT22;3138;52.550;13.148;2023-10-09T16:19:59;11.30;99.90
6210;DHT22;3138;52.550;13.148;2023-10-09T16:22:26;11.30;99.90
6210;DHT22;3138;52.550;13.148;2023-10-09T16:24:55;11.30;99.90
6210;DHT22;3138;52.550;13.148;2023-10-09T16:27:22;11.30;99.90
6210;DHT22;3138;52.550;13.148;2023-10-09T16:29:50;11.20;99.90
6210;DHT22;3138;52.550;13.148;2023-10-09T16:32:17;11.30;99.90
6210;DHT22;3138;52.550;13.148;2023-10-09T16:34:48;11.20;99.90
6210;DHT22;3138;52.550;13.148;2023-10-09T16:37:15;11.20;99.90